createdAt,value
2023-12-15T00:01:51.221Z,3.10
2023-12-15T00:04:19.980Z,3.20
2023-12-15T00:06:48.115Z,3.20
2023-12-15T00:09:16.713Z,3.20
2023-12-15T00:11:44.868Z,3.10
2023-12-15T00:14:13.126Z,3.10
2023-12-15T00:16:41.252Z,3.10
2023-12-15T00:19:10.847Z,2.90
2023-12-15T00:21:39.128Z,2.90
2023-12-15T00:24:10.161Z,2.90
2023-12-15T00:26:38.534Z,2.80
2023-12-15T00:29:06.684Z,2.90
2023-12-15T00:31:34.817Z,2.90
2023-12-15T00:34:02.946Z,2.80
2023-12-15T00:36:32.474Z,2.80
2023-12-15T00:39:00.552Z,2.70
2023-12-15T00:41:28.753Z,2.70
2023-12-15T00:43:56.885Z,2.70
2023-12-15T00:46:25.047Z,2.60
2023-12-15T00:48:53.231Z,2.50
2023-12-15T00:51:20.501Z,2.60
2023-12-15T00:53:49.962Z,2.60
2023-12-15T00:56:18.111Z,2.50
2023-12-15T00:58:46.256Z,2.40
2023-12-15T01:01:14.372Z,2.40
2023-12-15T01:03:42.576Z,2.30
2023-12-15T01:06:10.778Z,2.30
2023-12-15T01:08:38.968Z,2.30
2023-12-15T01:11:09.603Z,2.30
2023-12-15T01:13:37.752Z,2.40
2023-12-15T01:16:07.108Z,2.40
2023-12-15T01:18:35.299Z,2.30
2023-12-15T01:21:03.720Z,2.30
2023-12-15T01:23:31.963Z,2.20
2023-12-15T01:26:00.138Z,2.20
2023-12-15T01:28:29.786Z,2.20
2023-12-15T01:30:57.920Z,2.20
2023-12-15T01:33:26.225Z,2.20
2023-12-15T01:35:54.411Z,2.10
2023-12-15T01:38:22.738Z,2.10
2023-12-15T01:40:51.080Z,2.00
2023-12-15T01:43:19.322Z,1.90
2023-12-15T01:45:55.446Z,1.80
2023-12-15T01:48:31.518Z,1.80
2023-12-15T01:50:59.677Z,1.70
2023-12-15T01:53:27.942Z,1.60
2023-12-15T01:55:56.136Z,1.60
2023-12-15T01:58:24.289Z,1.50
2023-12-15T02:00:54.165Z,1.50
2023-12-15T02:03:22.363Z,1.50
2023-12-15T02:05:51.088Z,1.50
2023-12-15T02:08:19.308Z,1.50
2023-12-15T02:10:47.438Z,1.50
2023-12-15T02:13:15.798Z,1.50
2023-12-15T02:15:43.992Z,1.50
2023-12-15T02:18:13.581Z,1.50
2023-12-15T02:20:41.793Z,1.60
2023-12-15T02:23:11.318Z,1.60
2023-12-15T02:25:39.441Z,1.60
2023-12-15T02:28:07.530Z,1.50
2023-12-15T02:30:35.635Z,1.50
2023-12-15T02:33:04.005Z,1.50
2023-12-15T02:35:32.328Z,1.40
2023-12-15T02:38:01.968Z,1.40
2023-12-15T02:40:31.448Z,1.40
2023-12-15T02:42:59.572Z,1.30
2023-12-15T02:45:27.653Z,1.30
2023-12-15T02:47:55.899Z,1.50
2023-12-15T02:50:24.195Z,1.50
2023-12-15T02:52:52.381Z,1.60
2023-12-15T02:55:20.534Z,1.70
2023-12-15T02:57:49.972Z,1.70
2023-12-15T03:00:18.444Z,1.60
2023-12-15T03:02:46.509Z,1.60
2023-12-15T03:05:14.682Z,1.60
2023-12-15T03:07:42.873Z,1.60
2023-12-15T03:10:11.264Z,1.60
2023-12-15T03:12:39.630Z,1.70
2023-12-15T03:15:10.141Z,1.70
2023-12-15T03:17:38.597Z,1.70
2023-12-15T03:20:08.913Z,1.80
2023-12-15T03:22:37.003Z,1.80
2023-12-15T03:25:06.372Z,1.80
2023-12-15T03:27:34.693Z,1.80
2023-12-15T03:30:02.982Z,1.80
2023-12-15T03:32:32.566Z,1.80
2023-12-15T03:35:00.867Z,1.80
2023-12-15T03:37:29.011Z,1.90
2023-12-15T03:39:57.091Z,1.80
2023-12-15T03:42:25.197Z,1.90
2023-12-15T03:44:54.078Z,1.90
2023-12-15T03:47:22.252Z,1.90
2023-12-15T03:49:51.699Z,1.90
2023-12-15T03:52:19.823Z,1.90
2023-12-15T03:54:48.047Z,1.90
2023-12-15T03:57:16.141Z,1.90
2023-12-15T03:59:44.211Z,1.80
2023-12-15T04:02:16.129Z,1.90
2023-12-15T04:04:44.468Z,1.90
2023-12-15T04:07:13.988Z,1.80
2023-12-15T04:09:42.052Z,1.70
2023-12-15T04:12:10.244Z,1.80
2023-12-15T04:14:38.390Z,1.90
2023-12-15T04:17:06.715Z,1.80
2023-12-15T04:19:34.941Z,1.80
2023-12-15T04:22:03.155Z,1.80
2023-12-15T04:24:32.625Z,1.90
2023-12-15T04:27:00.725Z,1.90
2023-12-15T04:29:28.902Z,1.90
2023-12-15T04:31:57.066Z,1.90
2023-12-15T04:34:24.209Z,1.90
2023-12-15T04:36:52.297Z,1.90
2023-12-15T04:39:20.379Z,1.80
2023-12-15T04:41:49.804Z,1.90
2023-12-15T04:44:17.907Z,1.90
2023-12-15T04:46:45.997Z,1.90
2023-12-15T04:49:14.197Z,1.80
2023-12-15T04:51:42.401Z,1.80
2023-12-15T04:54:10.530Z,1.90
2023-12-15T04:56:38.661Z,1.90
2023-12-15T04:59:08.214Z,1.90
2023-12-15T05:01:36.328Z,1.90
2023-12-15T05:04:04.702Z,1.90
2023-12-15T05:06:33.141Z,1.90
2023-12-15T05:09:01.275Z,1.70
2023-12-15T05:11:29.415Z,1.70
2023-12-15T05:13:57.590Z,1.70
2023-12-15T05:16:27.072Z,1.80
2023-12-15T05:18:55.175Z,1.80
2023-12-15T05:21:23.318Z,1.80
2023-12-15T05:23:51.434Z,1.90
2023-12-15T05:26:19.596Z,1.80
2023-12-15T05:28:47.943Z,1.90
2023-12-15T05:31:16.106Z,1.90
2023-12-15T05:33:46.240Z,1.90
2023-12-15T05:36:19.784Z,1.90
2023-12-15T05:38:48.001Z,1.90
2023-12-15T05:41:16.195Z,1.90
2023-12-15T05:43:45.508Z,1.80
2023-12-15T05:46:14.148Z,1.80
2023-12-15T05:48:42.406Z,1.80
2023-12-15T05:51:11.945Z,1.90
2023-12-15T05:53:48.602Z,1.80
2023-12-15T05:56:23.536Z,1.80
2023-12-15T05:58:51.660Z,1.90
2023-12-15T06:01:19.780Z,1.90
2023-12-15T06:03:47.949Z,1.90
2023-12-15T06:06:17.541Z,1.90
2023-12-15T06:08:45.705Z,1.80
2023-12-15T06:11:13.882Z,1.90
2023-12-15T06:13:43.225Z,1.80
2023-12-15T06:16:18.300Z,1.80
2023-12-15T06:18:46.538Z,1.90
2023-12-15T06:21:23.406Z,1.90
2023-12-15T06:23:51.494Z,2.00
2023-12-15T06:26:19.965Z,2.00
2023-12-15T06:28:48.288Z,2.00
2023-12-15T06:31:16.443Z,2.00
2023-12-15T06:33:44.738Z,2.00
2023-12-15T06:36:13.260Z,2.10
2023-12-15T06:38:44.331Z,2.10
2023-12-15T06:41:12.527Z,2.00
2023-12-15T06:43:41.160Z,2.10
2023-12-15T06:46:09.260Z,2.10
2023-12-15T06:48:37.401Z,2.10
2023-12-15T06:51:07.158Z,2.10
2023-12-15T06:53:36.024Z,2.00
2023-12-15T06:56:06.176Z,2.00
2023-12-15T06:58:34.664Z,2.10
2023-12-15T07:01:02.825Z,2.10
2023-12-15T07:03:31.136Z,2.00
2023-12-15T07:05:59.476Z,2.10
2023-12-15T07:08:27.700Z,2.10
2023-12-15T07:10:55.833Z,2.10
2023-12-15T07:13:25.309Z,2.00
2023-12-15T07:15:53.864Z,2.10
2023-12-15T07:18:22.068Z,2.10
2023-12-15T07:20:50.628Z,2.10
2023-12-15T07:23:18.847Z,2.10
2023-12-15T07:25:46.947Z,2.10
2023-12-15T07:28:15.751Z,2.10
2023-12-15T07:30:45.208Z,2.00
2023-12-15T07:33:13.498Z,2.00
2023-12-15T07:35:41.721Z,2.00
2023-12-15T07:38:10.254Z,2.00
2023-12-15T07:40:38.428Z,2.10
2023-12-15T07:43:06.761Z,2.10
2023-12-15T07:45:34.861Z,2.00
2023-12-15T07:48:04.577Z,2.10
2023-12-15T07:50:32.925Z,2.10
2023-12-15T07:53:01.096Z,2.10
2023-12-15T07:55:29.243Z,2.10
2023-12-15T07:57:57.542Z,2.10
2023-12-15T08:00:25.798Z,2.20
2023-12-15T08:02:54.049Z,2.20
2023-12-15T08:05:23.908Z,2.10
2023-12-15T08:07:52.049Z,2.20
2023-12-15T08:10:20.140Z,2.20
2023-12-15T08:12:48.202Z,2.20
2023-12-15T08:15:16.460Z,2.30
2023-12-15T08:17:44.585Z,2.30
2023-12-15T08:20:13.307Z,2.30
2023-12-15T08:22:42.897Z,2.30
2023-12-15T08:25:11.183Z,2.30
2023-12-15T08:27:41.905Z,2.40
2023-12-15T08:30:10.912Z,2.40
2023-12-15T08:32:39.467Z,2.50
2023-12-15T08:35:08.227Z,2.40
2023-12-15T08:37:36.684Z,2.50
2023-12-15T08:40:07.476Z,2.50
2023-12-15T08:42:35.619Z,2.50
2023-12-15T08:45:03.798Z,2.50
2023-12-15T08:47:32.079Z,2.60
2023-12-15T08:50:00.544Z,2.60
2023-12-15T08:52:28.711Z,2.60
2023-12-15T08:54:57.027Z,2.70
2023-12-15T08:57:26.621Z,2.70
2023-12-15T08:59:54.791Z,2.80
2023-12-15T09:02:22.914Z,2.70
2023-12-15T09:04:59.141Z,2.80
2023-12-15T09:07:30.456Z,2.80
2023-12-15T09:09:58.634Z,2.80
2023-12-15T09:12:28.051Z,2.90
2023-12-15T09:14:57.711Z,2.90
2023-12-15T09:17:26.083Z,2.90
2023-12-15T09:19:54.621Z,2.90
2023-12-15T09:22:22.720Z,3.00
2023-12-15T09:24:53.036Z,3.00
2023-12-15T09:27:21.150Z,3.00
2023-12-15T09:29:51.049Z,3.10
2023-12-15T09:32:19.172Z,3.10
2023-12-15T09:34:47.284Z,3.10
2023-12-15T09:37:15.620Z,3.10
2023-12-15T09:39:43.722Z,3.20
2023-12-15T09:42:11.825Z,3.20
2023-12-15T09:44:52.371Z,3.20
2023-12-15T09:47:29.405Z,3.30
2023-12-15T09:49:57.538Z,3.30
2023-12-15T09:52:25.645Z,3.30
2023-12-15T09:54:53.700Z,3.40
2023-12-15T09:57:21.852Z,3.40
2023-12-15T09:59:49.954Z,3.50
2023-12-15T10:02:18.098Z,3.50
2023-12-15T10:04:49.762Z,3.50
2023-12-15T10:07:17.984Z,3.50
2023-12-15T10:09:46.074Z,3.60
2023-12-15T10:12:14.175Z,3.60
2023-12-15T10:14:42.441Z,3.60
2023-12-15T10:17:11.619Z,3.60
2023-12-15T10:19:40.002Z,3.70
2023-12-15T10:22:09.521Z,3.70
2023-12-15T10:24:37.744Z,3.70
2023-12-15T10:27:09.074Z,3.80
2023-12-15T10:29:39.600Z,3.80
2023-12-15T10:32:08.160Z,3.80
2023-12-15T10:34:36.282Z,3.80
2023-12-15T10:37:05.002Z,3.90
2023-12-15T10:39:34.536Z,3.70
2023-12-15T10:42:03.827Z,3.80
2023-12-15T10:44:31.989Z,3.80
2023-12-15T10:47:00.178Z,3.90
2023-12-15T10:49:35.330Z,4.00
2023-12-15T10:52:08.753Z,4.00
2023-12-15T10:54:38.603Z,4.10
2023-12-15T10:57:06.959Z,4.10
2023-12-15T10:59:35.113Z,4.10
2023-12-15T11:02:03.276Z,4.10
2023-12-15T11:04:32.795Z,4.20
2023-12-15T11:07:00.908Z,4.20
2023-12-15T11:09:42.939Z,4.20
2023-12-15T11:12:31.800Z,4.10
2023-12-15T11:15:01.188Z,4.20
2023-12-15T11:17:30.155Z,4.10
2023-12-15T11:20:07.535Z,4.20
2023-12-15T11:22:53.833Z,4.20
2023-12-15T11:25:22.597Z,4.20
2023-12-15T11:28:02.494Z,4.20
2023-12-15T11:30:32.364Z,4.30
2023-12-15T11:33:00.629Z,4.30
2023-12-15T11:35:29.727Z,4.30
2023-12-15T11:37:59.382Z,4.30
2023-12-15T11:40:30.804Z,4.40
2023-12-15T11:42:59.198Z,4.40
2023-12-15T11:45:30.607Z,4.30
2023-12-15T11:47:58.814Z,4.20
2023-12-15T11:50:26.978Z,4.30
2023-12-15T11:52:57.459Z,4.30
2023-12-15T11:55:25.612Z,4.30
2023-12-15T11:57:55.436Z,4.30
2023-12-15T12:00:23.592Z,4.40
2023-12-15T12:02:53.021Z,4.50
2023-12-15T12:05:21.119Z,4.20
2023-12-15T12:07:50.031Z,4.20
2023-12-15T12:10:18.272Z,4.30
2023-12-15T12:12:46.380Z,4.30
2023-12-15T12:15:14.417Z,4.30
2023-12-15T12:17:42.602Z,4.30
2023-12-15T12:20:13.419Z,4.30
2023-12-15T12:22:41.622Z,4.30
2023-12-15T12:25:11.977Z,4.40
2023-12-15T12:27:40.246Z,4.30
2023-12-15T12:30:12.390Z,4.40
2023-12-15T12:32:40.947Z,4.30
2023-12-15T12:35:09.603Z,4.40
2023-12-15T12:37:39.065Z,4.40
2023-12-15T12:40:08.314Z,4.50
2023-12-15T12:42:37.373Z,4.50
2023-12-15T12:45:07.698Z,4.50
2023-12-15T12:47:39.241Z,4.60
2023-12-15T12:50:08.854Z,4.50
2023-12-15T12:52:38.782Z,4.50
2023-12-15T12:55:08.049Z,4.50
2023-12-15T12:57:36.167Z,4.60
2023-12-15T13:00:08.005Z,4.70
2023-12-15T13:02:36.781Z,4.60
2023-12-15T13:05:05.368Z,4.70
2023-12-15T13:07:33.482Z,4.70
2023-12-15T13:10:02.910Z,4.70
2023-12-15T13:12:30.957Z,4.80
2023-12-15T13:14:59.044Z,4.80
2023-12-15T13:17:27.459Z,4.80
2023-12-15T13:19:55.796Z,4.80
2023-12-15T13:22:38.274Z,4.70
2023-12-15T13:25:15.224Z,4.80
2023-12-15T13:27:43.306Z,4.90
2023-12-15T13:30:12.504Z,4.90
2023-12-15T13:32:41.260Z,5.00
2023-12-15T13:35:10.151Z,4.90
2023-12-15T13:37:38.287Z,5.00
2023-12-15T13:40:07.717Z,5.00
2023-12-15T13:42:37.913Z,4.90
2023-12-15T13:45:07.353Z,5.00
2023-12-15T13:47:35.809Z,5.00
2023-12-15T13:50:04.125Z,5.10
2023-12-15T13:52:33.007Z,5.00
2023-12-15T13:55:01.122Z,5.10
2023-12-15T13:57:29.375Z,5.10
2023-12-15T13:59:58.790Z,5.10
2023-12-15T14:02:26.877Z,5.10
2023-12-15T14:04:54.974Z,5.20
2023-12-15T14:07:23.008Z,5.20
2023-12-15T14:09:51.091Z,5.10
2023-12-15T14:12:19.177Z,5.10
2023-12-15T14:14:49.065Z,5.10
2023-12-15T14:17:18.535Z,5.10
2023-12-15T14:19:47.115Z,5.10
2023-12-15T14:22:17.274Z,5.10
2023-12-15T14:24:47.643Z,5.20
2023-12-15T14:27:15.937Z,5.20
2023-12-15T14:29:46.073Z,5.20
2023-12-15T14:32:15.227Z,5.20
2023-12-15T14:34:44.683Z,5.20
2023-12-15T14:37:12.749Z,5.20
2023-12-15T14:39:40.853Z,5.20
2023-12-15T14:42:09.622Z,5.10
2023-12-15T14:44:37.706Z,5.10
2023-12-15T14:47:05.864Z,5.10
2023-12-15T14:49:34.115Z,5.10
2023-12-15T14:52:03.691Z,5.20
2023-12-15T14:54:31.726Z,5.20
2023-12-15T14:57:00.219Z,5.20
2023-12-15T14:59:28.280Z,5.20
2023-12-15T15:01:58.337Z,5.20
2023-12-15T15:04:26.394Z,5.20
2023-12-15T15:06:54.565Z,5.30
2023-12-15T15:09:23.983Z,5.30
2023-12-15T15:11:52.146Z,5.30
2023-12-15T15:14:20.842Z,5.40
2023-12-15T15:16:48.953Z,5.30
2023-12-15T15:19:17.465Z,5.30
2023-12-15T15:21:45.616Z,5.40
2023-12-15T15:24:13.708Z,5.40
2023-12-15T15:26:43.721Z,5.40
2023-12-15T15:29:11.833Z,5.40
2023-12-15T15:31:40.562Z,5.40
2023-12-15T15:34:08.907Z,5.40
2023-12-15T15:36:39.701Z,5.40
2023-12-15T15:39:07.834Z,5.40
2023-12-15T15:41:35.876Z,5.40
2023-12-15T15:44:10.954Z,5.40
2023-12-15T15:46:43.242Z,5.40
2023-12-15T15:49:11.413Z,5.40
2023-12-15T15:51:39.504Z,5.30
2023-12-15T15:54:07.610Z,5.30
2023-12-15T15:56:35.765Z,5.30
2023-12-15T15:59:07.319Z,5.30
2023-12-15T16:01:40.739Z,5.30
2023-12-15T16:04:11.983Z,5.40
2023-12-15T16:06:40.201Z,5.40
2023-12-15T16:09:08.785Z,5.30
2023-12-15T16:11:36.911Z,5.40
2023-12-15T16:14:10.906Z,5.40
2023-12-15T16:16:40.370Z,5.40
2023-12-15T16:19:09.355Z,5.40
2023-12-15T16:21:37.905Z,5.40
2023-12-15T16:24:08.036Z,5.40
2023-12-15T16:26:36.239Z,5.50
2023-12-15T16:29:04.424Z,5.50
2023-12-15T16:31:33.909Z,5.50
2023-12-15T16:34:03.431Z,5.50
2023-12-15T16:36:31.799Z,5.50
2023-12-15T16:39:00.065Z,5.50
2023-12-15T16:41:28.940Z,5.60
2023-12-15T16:43:57.090Z,5.60
2023-12-15T16:46:25.963Z,5.60
2023-12-15T16:48:56.343Z,5.60
2023-12-15T16:51:26.822Z,5.70
2023-12-15T16:53:55.330Z,5.70
2023-12-15T16:56:23.461Z,5.60
2023-12-15T16:58:51.650Z,5.60
2023-12-15T17:01:19.902Z,5.70
2023-12-15T17:03:48.168Z,5.70
2023-12-15T17:06:17.590Z,5.70
2023-12-15T17:08:45.866Z,5.80
2023-12-15T17:11:14.454Z,5.80
2023-12-15T17:13:43.092Z,5.80
2023-12-15T17:16:14.681Z,5.80
2023-12-15T17:18:46.703Z,5.90
2023-12-15T17:21:15.033Z,5.90
2023-12-15T17:23:44.652Z,5.90
2023-12-15T17:26:16.952Z,5.90
2023-12-15T17:28:45.015Z,5.90
2023-12-15T17:31:13.271Z,5.90
2023-12-15T17:33:41.473Z,5.80
2023-12-15T17:36:11.841Z,5.80
2023-12-15T17:38:40.093Z,5.90
2023-12-15T17:41:09.548Z,5.80
2023-12-15T17:43:37.660Z,5.90
2023-12-15T17:46:06.142Z,5.80
2023-12-15T17:48:34.701Z,5.80
2023-12-15T17:51:02.802Z,5.90
2023-12-15T17:53:30.867Z,5.90
2023-12-15T17:55:59.039Z,5.90
2023-12-15T17:58:28.484Z,6.00
2023-12-15T18:00:56.666Z,6.00
2023-12-15T18:03:25.104Z,6.00
2023-12-15T18:05:53.189Z,6.00
2023-12-15T18:08:21.279Z,6.00
2023-12-15T18:10:49.938Z,6.10
2023-12-15T18:13:18.748Z,6.10
2023-12-15T18:15:48.306Z,6.10
2023-12-15T18:18:16.522Z,6.10
2023-12-15T18:20:44.611Z,6.10
2023-12-15T18:23:15.046Z,6.00
2023-12-15T18:25:43.453Z,6.00
2023-12-15T18:28:19.558Z,6.10
2023-12-15T18:30:52.593Z,6.10
2023-12-15T18:33:20.888Z,6.10
2023-12-15T18:35:49.298Z,6.00
2023-12-15T18:38:17.326Z,6.00
2023-12-15T18:40:46.182Z,6.00
2023-12-15T18:43:14.361Z,6.10
2023-12-15T18:45:43.533Z,6.10
2023-12-15T18:48:14.799Z,6.10
2023-12-15T18:50:43.222Z,6.10
2023-12-15T18:53:11.363Z,6.20
2023-12-15T18:55:40.184Z,6.20
2023-12-15T18:58:08.365Z,6.20
2023-12-15T19:00:36.708Z,6.20
2023-12-15T19:03:05.084Z,6.20
2023-12-15T19:05:35.602Z,6.30
2023-12-15T19:08:03.954Z,6.30
2023-12-15T19:10:32.098Z,6.30
2023-12-15T19:13:00.215Z,6.30
2023-12-15T19:15:28.833Z,6.30
2023-12-15T19:17:57.935Z,6.20
2023-12-15T19:20:30.527Z,6.20
2023-12-15T19:23:00.561Z,6.20
2023-12-15T19:25:28.683Z,6.20
2023-12-15T19:27:56.828Z,6.30
2023-12-15T19:30:24.997Z,6.30
2023-12-15T19:32:53.388Z,6.30
2023-12-15T19:35:21.903Z,6.30
2023-12-15T19:37:50.107Z,6.30
2023-12-15T19:40:20.064Z,6.30
2023-12-15T19:42:48.214Z,6.30
2023-12-15T19:45:16.323Z,6.30
2023-12-15T19:47:44.363Z,6.30
2023-12-15T19:50:12.626Z,6.30
2023-12-15T19:52:44.228Z,6.30
2023-12-15T19:55:12.594Z,6.30
2023-12-15T19:57:44.177Z,6.30
2023-12-15T20:00:13.150Z,6.30
2023-12-15T20:02:41.217Z,6.30
2023-12-15T20:05:09.576Z,6.30
2023-12-15T20:07:38.132Z,6.30
2023-12-15T20:10:07.604Z,6.30
2023-12-15T20:12:35.770Z,6.20
2023-12-15T20:15:05.846Z,6.20
2023-12-15T20:17:33.994Z,6.30
2023-12-15T20:20:02.357Z,6.30
2023-12-15T20:22:31.342Z,6.20
2023-12-15T20:24:59.460Z,6.20
2023-12-15T20:27:27.568Z,6.20
2023-12-15T20:29:56.143Z,6.20
2023-12-15T20:32:25.563Z,6.20
2023-12-15T20:34:53.698Z,6.20
2023-12-15T20:37:21.836Z,6.20
2023-12-15T20:39:51.064Z,6.20
2023-12-15T20:42:19.129Z,6.10
2023-12-15T20:44:47.443Z,6.10
2023-12-15T20:47:15.582Z,6.10
2023-12-15T20:49:45.348Z,6.20
2023-12-15T20:52:13.565Z,6.20
2023-12-15T20:54:44.761Z,6.20
2023-12-15T20:57:12.864Z,6.20
2023-12-15T20:59:42.140Z,6.20
2023-12-15T21:02:10.364Z,6.30
2023-12-15T21:04:39.284Z,6.30
2023-12-15T21:07:11.589Z,6.30
2023-12-15T21:09:41.045Z,6.30
2023-12-15T21:12:10.102Z,6.40
2023-12-15T21:14:38.213Z,6.40
2023-12-15T21:17:07.056Z,6.40
2023-12-15T21:19:35.416Z,6.40
2023-12-15T21:22:03.994Z,6.40
2023-12-15T21:24:33.509Z,6.40
2023-12-15T21:27:01.590Z,6.40
2023-12-15T21:29:29.699Z,6.50
2023-12-15T21:31:57.932Z,6.40
2023-12-15T21:34:26.325Z,6.40
2023-12-15T21:36:54.529Z,6.40
2023-12-15T21:39:22.641Z,6.50
2023-12-15T21:41:52.057Z,6.50
2023-12-15T21:44:20.188Z,6.50
2023-12-15T21:46:48.288Z,6.50
2023-12-15T21:49:16.545Z,6.50
2023-12-15T21:51:44.773Z,6.40
2023-12-15T21:54:12.909Z,6.40
2023-12-15T21:56:41.006Z,6.40
2023-12-15T21:59:13.414Z,6.40
2023-12-15T22:01:41.633Z,6.50
2023-12-15T22:04:11.938Z,6.40
2023-12-15T22:06:40.362Z,6.50
2023-12-15T22:09:10.397Z,6.50
2023-12-15T22:11:38.476Z,6.40
2023-12-15T22:14:06.547Z,6.50
2023-12-15T22:16:39.679Z,6.50
2023-12-15T22:19:08.200Z,6.40
2023-12-15T22:21:38.157Z,6.40
2023-12-15T22:24:06.590Z,6.40
2023-12-15T22:26:34.691Z,6.50
2023-12-15T22:29:02.816Z,6.50
2023-12-15T22:31:30.996Z,6.50
2023-12-15T22:34:00.812Z,6.50
2023-12-15T22:36:28.940Z,6.50
2023-12-15T22:38:57.038Z,6.40
2023-12-15T22:41:25.120Z,6.50
2023-12-15T22:43:53.222Z,6.50
2023-12-15T22:46:21.592Z,6.50
2023-12-15T22:48:49.820Z,6.50
2023-12-15T22:51:19.296Z,6.50
2023-12-15T22:53:47.408Z,6.60
2023-12-15T22:56:15.916Z,6.60
2023-12-15T22:58:44.125Z,6.60
2023-12-15T23:01:12.491Z,6.60
2023-12-15T23:03:40.848Z,6.60
2023-12-15T23:06:09.341Z,6.60
2023-12-15T23:08:38.838Z,6.60
2023-12-15T23:11:07.176Z,6.60
2023-12-15T23:13:35.832Z,6.60
2023-12-15T23:16:04.123Z,6.60
2023-12-15T23:18:32.476Z,6.60
2023-12-15T23:21:06.739Z,6.60
2023-12-15T23:23:39.052Z,6.60
2023-12-15T23:26:09.572Z,6.60
2023-12-15T23:28:37.823Z,6.60
2023-12-15T23:31:06.283Z,6.60
2023-12-15T23:33:36.487Z,6.50
2023-12-15T23:36:05.157Z,6.50
2023-12-15T23:38:33.227Z,6.50
2023-12-15T23:41:02.686Z,6.50
2023-12-15T23:43:31.159Z,6.50
2023-12-15T23:45:59.908Z,6.60
2023-12-15T23:48:28.247Z,6.60
2023-12-15T23:50:56.404Z,6.50
2023-12-15T23:53:24.508Z,6.60
2023-12-15T23:55:52.579Z,6.60
2023-12-15T23:58:22.031Z,6.60
